Time;durP1;ratioP1;P1;durP2;ratioP2;P2;SDS_P1;SDS_P2;PMS_P1;PMS_P2;Temp;Humidity;BMP_temperature;BMP_pressure;BME280_temperature;BME280_humidity;BME280_pressure;Samples;Min_cycle;Max_cycle;Signal;HPM_P1;HPM_P2
2022/05/28 00:01:40;;;;;;;13.40;4.93;;;;;;;14.85;63.91;101874.28;4981574;28;20054;-64
2022/05/28 00:04:08;;;;;;;14.73;4.70;;;;;;;14.81;64.14;101869.66;4998027;28;20717;-71
2022/05/28 00:06:35;;;;;;;12.43;4.60;;;;;;;14.76;64.13;101878.09;4997740;28;20057;-71
2022/05/28 00:09:04;;;;;;;14.82;4.75;;;;;;;14.75;64.21;101863.41;5014317;28;20520;-71
2022/05/28 00:11:37;;;;;;;13.90;4.15;;;;;;;14.83;63.98;101864.59;4999487;28;20529;-70
2022/05/28 00:14:05;;;;;;;17.88;5.03;;;;;;;14.58;63.90;101875.16;4998590;28;20058;-64
2022/05/28 00:16:33;;;;;;;14.75;4.55;;;;;;;14.51;64.73;101869.22;5012603;28;20058;-70
2022/05/28 00:19:01;;;;;;;17.60;4.78;;;;;;;14.56;64.23;101869.13;4977167;28;20050;-71
2022/05/28 00:21:28;;;;;;;15.50;5.05;;;;;;;14.86;63.78;101861.19;4962133;28;20059;-71
2022/05/28 00:23:55;;;;;;;17.90;5.80;;;;;;;14.60;64.37;101863.75;4979140;28;20051;-63
2022/05/28 00:26:23;;;;;;;15.00;3.95;;;;;;;14.77;63.75;101863.13;4946498;28;20058;-71
2022/05/28 00:28:51;;;;;;;14.38;4.38;;;;;;;14.83;63.53;101859.06;4995583;28;20377;-63
2022/05/28 00:31:18;;;;;;;15.48;4.97;;;;;;;14.46;64.45;101855.50;4997049;28;20054;-70
2022/05/28 00:33:46;;;;;;;12.43;4.30;;;;;;;14.58;64.56;101852.16;4998581;28;20058;-64
2022/05/28 00:36:15;;;;;;;15.18;4.32;;;;;;;14.49;64.65;101856.78;4995080;28;20050;-64
2022/05/28 00:38:44;;;;;;;13.70;4.50;;;;;;;14.47;65.39;101854.34;4998370;28;20508;-71
2022/05/28 00:41:12;;;;;;;16.00;4.40;;;;;;;14.44;64.68;101846.66;4980309;28;20498;-64
2022/05/28 00:43:43;;;;;;;14.13;4.30;;;;;;;14.48;64.70;101853.22;5012495;28;20058;-63
2022/05/28 00:46:13;;;;;;;;;;;;;;;14.53;64.89;101849.50;4996510;28;20073;-63
2022/05/28 00:48:46;;;;;;;16.05;4.95;;;;;;;14.35;65.03;101851.28;4997311;28;19929;-65
2022/05/28 00:51:17;;;;;;;10.93;4.20;;;;;;;14.40;65.50;101851.19;4997578;28;20047;-63
2022/05/28 00:53:45;;;;;;;15.07;4.78;;;;;;;14.55;65.24;101844.47;5013232;28;20050;-63
2022/05/28 00:56:12;;;;;;;16.23;5.13;;;;;;;14.48;65.26;101850.47;5013152;28;20046;-65
2022/05/28 00:58:40;;;;;;;12.27;5.15;;;;;;;14.60;64.96;101839.63;4996776;28;20062;-63
2022/05/28 01:01:09;;;;;;;15.02;5.07;;;;;;;14.33;65.53;101849.97;4998339;28;20054;-70
2022/05/28 01:04:06;;;;;;;11.75;4.32;;;;;;;14.57;65.29;101845.00;4998107;28;20066;-70
2022/05/28 01:06:55;;;;;;;14.68;4.90;;;;;;;14.53;65.37;101850.34;4996209;28;20058;-70
2022/05/28 01:09:44;;;;;;;14.73;4.82;;;;;;;14.16;66.61;101847.81;4995199;28;20053;-64
2022/05/28 01:12:21;;;;;;;14.02;5.30;;;;;;;14.10;67.29;101837.16;4996742;28;20628;-63
2022/05/28 01:14:52;;;;;;;15.82;4.88;;;;;;;14.16;67.68;101838.66;5012736;28;20058;-65
2022/05/28 01:17:26;;;;;;;21.73;5.72;;;;;;;14.38;66.72;101838.78;4996510;28;20414;-64
2022/05/28 01:20:13;;;;;;;11.52;4.50;;;;;;;14.27;66.80;101842.91;5006687;28;20076;-63
2022/05/28 01:23:08;;;;;;;15.55;5.35;;;;;;;14.47;66.33;101842.47;4996514;28;20421;-63
2022/05/28 01:25:47;;;;;;;14.18;5.40;;;;;;;14.18;66.88;101839.19;4995946;28;20080;-64
2022/05/28 01:28:17;;;;;;;13.27;4.90;;;;;;;14.05;67.71;101831.72;4996460;28;20042;-64
2022/05/28 01:30:46;;;;;;;14.40;5.30;;;;;;;13.53;69.55;101839.41;4988839;28;20058;-64
2022/05/28 01:33:15;;;;;;;16.70;5.22;;;;;;;13.56;70.00;101835.22;4977940;28;20047;-63
2022/05/28 01:35:44;;;;;;;19.60;4.80;;;;;;;13.87;68.59;101825.16;4995522;28;20046;-63
2022/05/28 01:38:12;;;;;;;15.55;5.00;;;;;;;13.59;69.08;101829.06;4993808;28;20059;-70
2022/05/28 01:40:40;;;;;;;14.40;5.32;;;;;;;13.58;69.69;101835.72;4977925;28;20606;-70
2022/05/28 01:43:11;;;;;;;17.40;5.18;;;;;;;13.55;70.40;101825.25;4976514;28;20131;-72
2022/05/28 01:45:41;;;;;;;18.67;5.30;;;;;;;13.90;69.11;101826.47;4994266;28;20058;-69
2022/05/28 01:48:09;;;;;;;12.05;5.03;;;;;;;13.69;69.38;101830.78;5011731;28;20524;-63
2022/05/28 01:50:40;;;;;;;12.45;4.85;;;;;;;13.90;69.09;101820.94;4992756;28;20058;-74
2022/05/28 01:53:09;;;;;;;15.80;5.18;;;;;;;13.99;68.63;101830.19;4992093;28;20055;-70
2022/05/28 01:55:42;;;;;;;14.73;5.28;;;;;;;14.06;68.16;101823.09;4979001;28;20047;-64
2022/05/28 01:58:09;;;;;;;14.38;5.18;;;;;;;13.89;68.85;101822.09;5012093;28;20070;-65
2022/05/28 02:00:36;;;;;;;13.02;5.28;;;;;;;13.75;69.63;101811.00;4997262;28;20046;-63
2022/05/28 02:03:05;;;;;;;15.27;5.30;;;;;;;13.95;68.71;101820.81;4997177;28;20057;-64
2022/05/28 02:05:32;;;;;;;13.48;5.00;;;;;;;14.21;68.14;101813.63;4995979;28;20712;-64
2022/05/28 02:08:00;;;;;;;15.95;5.50;;;;;;;14.08;68.53;101808.94;4995802;28;20042;-65
2022/05/28 02:10:27;;;;;;;14.73;5.45;;;;;;;13.98;68.84;101814.69;4996349;28;20046;-64
2022/05/28 02:13:10;;;;;;;16.52;6.22;;;;;;;13.65;70.05;101819.50;4978913;28;20141;-70
2022/05/28 02:15:47;;;;;;;15.48;5.65;;;;;;;13.79;69.62;101800.16;4977165;28;20054;-70
2022/05/28 02:18:19;;;;;;;13.10;5.35;;;;;;;13.83;70.02;101803.91;4995035;28;20149;-64
2022/05/28 02:21:08;;;;;;;13.85;5.05;;;;;;;13.95;69.43;101805.03;4977451;28;20046;-63
2022/05/28 02:23:44;;;;;;;14.32;5.38;;;;;;;13.42;70.92;101801.97;4960040;28;20051;-63
2022/05/28 02:26:34;;;;;;;15.45;6.05;;;;;;;13.60;70.76;101797.47;4963747;28;20046;-72
2022/05/28 02:29:02;;;;;;;13.98;5.00;;;;;;;13.70;70.59;101790.91;4955911;29;20047;-72
2022/05/28 02:31:32;;;;;;;18.17;5.57;;;;;;;13.82;70.24;101793.97;4956946;29;20051;-63
2022/05/28 02:34:00;;;;;;;;;;;;;;;13.78;69.88;101795.72;4956735;29;20055;-70
2022/05/28 02:36:28;;;;;;;15.95;5.38;;;;;;;13.55;71.05;101795.63;4957592;28;19929;-72
2022/05/28 02:38:56;;;;;;;16.15;5.80;;;;;;;13.56;71.20;101796.47;4958755;28;20061;-71
2022/05/28 02:41:24;;;;;;;14.82;5.05;;;;;;;13.79;70.43;101791.84;4976357;28;20061;-64
2022/05/28 02:43:52;;;;;;;12.68;5.47;;;;;;;13.79;70.15;101789.06;4977069;28;20046;-64
2022/05/28 02:46:20;;;;;;;18.52;6.03;;;;;;;13.44;71.42;101801.69;4977540;28;20055;-64
2022/05/28 02:48:49;;;;;;;21.23;6.05;;;;;;;13.51;71.58;101796.56;4962365;28;20053;-70
2022/05/28 02:51:19;;;;;;;15.35;5.30;;;;;;;13.49;71.15;101780.22;4995299;28;20061;-70
2022/05/28 02:53:48;;;;;;;18.92;5.70;;;;;;;13.51;71.37;101779.94;4994521;28;20050;-72
2022/05/28 02:56:16;;;;;;;16.60;5.93;;;;;;;13.55;71.81;101783.72;5011706;28;20057;-70
2022/05/28 02:58:44;;;;;;;13.07;5.20;;;;;;;13.46;71.51;101791.09;5009839;28;20055;-71
2022/05/28 03:01:22;;;;;;;14.07;5.60;;;;;;;13.42;72.02;101790.88;5010616;28;20529;-70
2022/05/28 03:03:51;;;;;;;18.40;6.22;;;;;;;13.72;70.95;101785.88;4978413;28;20050;-71
2022/05/28 03:06:18;;;;;;;19.05;5.50;;;;;;;13.87;70.00;101780.03;4994294;28;20140;-71
2022/05/28 03:08:46;;;;;;;19.92;5.50;;;;;;;13.81;70.11;101775.75;4996127;28;20047;-63
2022/05/28 03:11:13;;;;;;;17.35;5.63;;;;;;;13.63;71.24;101783.03;4995055;28;20053;-64
2022/05/28 03:13:41;;;;;;;19.95;5.70;;;;;;;13.66;70.84;101782.41;4994888;28;20046;-70
2022/05/28 03:16:09;;;;;;;18.45;5.30;;;;;;;13.40;72.05;101790.41;5011050;28;20046;-71
2022/05/28 03:18:37;;;;;;;13.75;5.82;;;;;;;13.37;72.09;101782.69;4992374;28;20058;-64
2022/05/28 03:21:05;;;;;;;16.20;5.82;;;;;;;13.32;72.98;101785.56;4959171;28;20060;-64
2022/05/28 03:23:33;;;;;;;17.95;5.90;;;;;;;13.25;72.76;101784.34;4998094;28;20061;-69
2022/05/28 03:26:14;;;;;;;17.33;5.40;;;;;;;13.37;72.65;101782.69;4995548;28;20073;-64
2022/05/28 03:28:45;;;;;;;15.52;5.43;;;;;;;13.48;72.22;101780.53;4994667;28;20046;-64
2022/05/28 03:31:13;;;;;;;16.73;5.45;;;;;;;13.47;72.17;101784.44;4994619;28;20053;-63
2022/05/28 03:33:40;;;;;;;15.10;5.22;;;;;;;13.33;72.61;101789.16;4994789;28;20050;-70
2022/05/28 03:36:08;;;;;;;17.50;5.82;;;;;;;13.19;73.42;101780.84;4996145;28;20139;-63
2022/05/28 03:38:37;;;;;;;16.60;5.28;;;;;;;13.14;73.45;101785.63;5009581;28;20058;-63
2022/05/28 03:41:04;;;;;;;13.88;6.30;;;;;;;13.10;73.87;101785.44;5010919;28;20053;-64
2022/05/28 03:43:32;;;;;;;20.10;6.63;;;;;;;13.15;73.35;101782.56;4994413;28;20050;-72
2022/05/28 03:46:00;;;;;;;21.10;6.13;;;;;;;12.91;74.27;101792.09;4994775;28;20054;-71
2022/05/28 03:48:27;;;;;;;21.70;5.97;;;;;;;13.08;73.95;101787.69;4994917;28;20057;-71
2022/05/28 03:50:55;;;;;;;14.02;5.40;;;;;;;13.29;73.27;101788.94;4994118;28;20062;-71
2022/05/28 03:53:23;;;;;;;16.08;6.00;;;;;;;13.35;72.75;101795.22;4995167;28;20536;-63
2022/05/28 03:55:51;;;;;;;14.65;5.53;;;;;;;13.45;72.66;101800.53;4995165;28;20057;-65
2022/05/28 03:58:18;;;;;;;15.05;5.82;;;;;;;13.57;72.30;101793.38;5010528;28;20065;-65
2022/05/28 04:00:45;;;;;;;12.50;5.05;;;;;;;13.32;72.67;101793.03;4993897;28;20043;-64
2022/05/28 04:03:13;;;;;;;16.58;5.65;;;;;;;12.94;74.07;101799.78;4995316;28;20065;-71
2022/05/28 04:05:40;;;;;;;18.25;5.65;;;;;;;12.74;75.59;101797.38;4978069;28;20058;-70
2022/05/28 04:08:08;;;;;;;18.85;6.18;;;;;;;12.51;76.12;101809.34;5010220;28;20073;-70
2022/05/28 04:10:35;;;;;;;18.02;6.07;;;;;;;12.58;76.75;101807.84;4993976;28;20042;-64
2022/05/28 04:13:03;;;;;;;14.45;6.13;;;;;;;12.54;76.69;101808.75;4992948;28;20451;-64
2022/05/28 04:15:32;;;;;;;14.57;5.90;;;;;;;12.75;76.43;101807.28;4994975;28;20050;-72
2022/05/28 04:18:00;;;;;;;17.17;5.40;;;;;;;12.70;75.89;101808.22;4995360;28;20065;-71
2022/05/28 04:20:27;;;;;;;17.17;6.00;;;;;;;12.62;76.66;101814.44;4959757;28;20046;-71
2022/05/28 04:22:55;;;;;;;16.70;5.90;;;;;;;12.32;77.86;101812.94;4974993;28;20053;-70
2022/05/28 04:25:22;;;;;;;18.23;6.90;;;;;;;12.21;78.69;101816.97;4993702;28;20054;-63
2022/05/28 04:27:50;;;;;;;23.25;6.57;;;;;;;12.21;78.91;101818.91;4993853;28;20062;-66
2022/05/28 04:30:17;;;;;;;24.20;6.57;;;;;;;12.28;78.31;101824.88;4993908;28;20042;-64
2022/05/28 04:32:44;;;;;;;12.40;5.63;;;;;;;11.92;80.14;101818.19;4994955;28;20054;-64
2022/05/28 04:35:12;;;;;;;17.92;6.63;;;;;;;11.85;80.53;101820.50;4995758;28;20059;-64
2022/05/28 04:37:39;;;;;;;22.10;7.18;;;;;;;11.86;80.68;101820.19;4998530;28;20485;-63
2022/05/28 04:40:08;;;;;;;17.38;6.40;;;;;;;12.09;80.15;101824.03;4998381;28;20054;-62
2022/05/28 04:42:36;;;;;;;19.30;6.00;;;;;;;12.52;78.71;101822.84;4998664;28;20046;-64
2022/05/28 04:45:04;;;;;;;17.65;6.40;;;;;;;12.69;77.77;101825.09;4997131;28;20514;-64
2022/05/28 04:47:31;;;;;;;20.60;7.25;;;;;;;12.73;76.97;101820.59;4995824;28;20414;-64
2022/05/28 04:49:58;;;;;;;21.13;6.95;;;;;;;12.46;77.24;101830.41;4980835;28;20058;-63
2022/05/28 04:52:26;;;;;;;20.67;6.65;;;;;;;12.38;78.71;101828.31;4997147;28;20046;-71
2022/05/28 04:54:53;;;;;;;16.08;6.63;;;;;;;12.73;77.17;101821.44;4998295;28;20049;-72
2022/05/28 04:57:21;;;;;;;24.75;7.07;;;;;;;12.83;76.92;101826.78;4997056;28;20057;-64
2022/05/28 04:59:49;;;;;;;17.58;7.25;;;;;;;12.98;76.22;101828.47;4995457;28;20073;-65
2022/05/28 05:02:16;;;;;;;18.27;6.80;;;;;;;12.61;76.89;101831.28;4998302;28;20078;-63
2022/05/28 05:04:43;;;;;;;22.15;7.38;;;;;;;12.62;77.22;101831.03;4980010;28;20058;-64
2022/05/28 05:07:11;;;;;;;18.98;6.90;;;;;;;12.75;76.98;101838.53;5013005;28;20455;-64
2022/05/28 05:09:38;;;;;;;25.48;8.23;;;;;;;12.60;77.12;101832.44;5012853;28;20054;-63
2022/05/28 05:12:06;;;;;;;19.85;7.20;;;;;;;12.47;77.90;101836.75;4996895;28;20584;-63
2022/05/28 05:14:33;;;;;;;19.55;6.80;;;;;;;12.41;78.37;101841.53;5012806;28;20253;-71
2022/05/28 05:17:00;;;;;;;20.30;6.97;;;;;;;12.59;77.76;101834.34;4998125;28;20406;-64
2022/05/28 05:19:28;;;;;;;24.27;8.02;;;;;;;12.93;76.33;101832.16;5012679;28;20054;-64
2022/05/28 05:21:56;;;;;;;21.30;6.85;;;;;;;12.91;75.94;101834.41;5012753;28;20525;-64
2022/05/28 05:24:24;;;;;;;20.00;6.68;;;;;;;13.03;76.02;101840.31;4995597;28;20050;-64
2022/05/28 05:26:51;;;;;;;20.27;7.28;;;;;;;12.87;75.97;101832.53;4996720;28;20434;-71
2022/05/28 05:29:19;;;;;;;22.65;8.00;;;;;;;12.80;76.19;101834.84;4997725;28;20058;-71
2022/05/28 05:31:47;;;;;;;19.65;7.25;;;;;;;12.87;76.38;101827.84;4997776;28;20054;-64
2022/05/28 05:34:14;;;;;;;23.15;7.22;;;;;;;12.94;75.29;101827.44;4996377;28;20058;-71
2022/05/28 05:36:41;;;;;;;27.42;7.85;;;;;;;13.11;75.46;101828.56;4979585;28;20073;-71
2022/05/28 05:39:09;;;;;;;21.85;7.18;;;;;;;13.09;75.12;101822.50;4997076;28;20062;-71
2022/05/28 05:41:40;;;;;;;19.90;7.18;;;;;;;13.14;75.34;101821.59;4996191;28;20375;-71
2022/05/28 05:44:08;;;;;;;20.13;7.07;;;;;;;13.22;74.33;101823.66;4995809;28;20614;-71
2022/05/28 05:46:39;;;;;;;26.38;7.68;;;;;;;13.38;74.41;101822.25;4994647;28;20058;-72
2022/05/28 05:49:08;;;;;;;20.25;7.50;;;;;;;13.45;73.61;101825.44;4996374;28;20055;-63
2022/05/28 05:51:44;;;;;;;16.45;7.65;;;;;;;13.50;73.67;101820.66;4995815;28;20529;-64
2022/05/28 05:54:13;;;;;;;16.35;7.20;;;;;;;13.58;72.89;101822.69;4995950;28;20073;-64
2022/05/28 05:56:41;;;;;;;16.10;6.70;;;;;;;13.66;72.52;101825.88;4995594;28;20069;-71
2022/05/28 05:59:08;;;;;;;21.92;7.68;;;;;;;13.83;71.95;101820.53;5012429;28;20057;-64
2022/05/28 06:01:36;;;;;;;23.60;7.13;;;;;;;14.08;70.64;101822.78;5012132;28;20517;-64
2022/05/28 06:04:04;;;;;;;19.45;7.15;;;;;;;13.55;72.57;101822.47;4995714;28;20050;-64
2022/05/28 06:06:32;;;;;;;17.90;7.97;;;;;;;13.86;71.96;101815.19;4995237;28;20055;-64
2022/05/28 06:08:59;;;;;;;18.90;7.60;;;;;;;13.94;70.55;101825.56;4994187;28;20046;-64
2022/05/28 06:11:27;;;;;;;21.75;8.57;;;;;;;13.70;72.02;101827.75;4994863;28;20047;-64
2022/05/28 06:13:54;;;;;;;22.75;7.78;;;;;;;13.69;71.99;101833.56;4979721;28;20047;-71
2022/05/28 06:16:22;;;;;;;26.00;7.90;;;;;;;13.44;72.77;101832.91;4996941;28;20057;-71
2022/05/28 06:18:50;;;;;;;19.73;7.70;;;;;;;13.45;73.64;101840.13;5003331;28;20051;-71
2022/05/28 06:21:17;;;;;;;21.67;7.85;;;;;;;13.75;72.75;101833.16;4969387;28;20042;-70
2022/05/28 06:23:45;;;;;;;20.20;8.07;;;;;;;13.69;72.26;101830.78;4996969;28;20050;-70
2022/05/28 06:26:13;;;;;;;24.90;7.93;;;;;;;13.56;73.50;101838.78;4996538;28;20053;-71
2022/05/28 06:28:41;;;;;;;20.50;8.95;;;;;;;13.70;72.26;101836.03;4996864;28;20057;-70
2022/05/28 06:31:10;;;;;;;21.63;8.38;;;;;;;13.25;74.39;101828.59;4995568;28;20050;-72
2022/05/28 06:33:39;;;;;;;20.13;7.85;;;;;;;13.65;73.19;101827.81;4962225;28;20050;-70
2022/05/28 06:36:08;;;;;;;20.63;8.27;;;;;;;13.19;75.12;101822.34;4996249;28;20501;-71
2022/05/28 06:38:39;;;;;;;17.40;7.75;;;;;;;13.27;74.54;101827.16;4996253;28;20054;-63
2022/05/28 06:41:07;;;;;;;30.05;8.73;;;;;;;13.17;75.16;101837.59;5011481;28;20050;-66
2022/05/28 06:43:34;;;;;;;19.10;8.27;;;;;;;13.36;74.90;101836.41;4994879;28;20058;-73
2022/05/28 06:46:04;;;;;;;25.75;8.55;;;;;;;13.56;74.74;101837.97;4993910;28;20061;-71
2022/05/28 06:48:32;;;;;;;21.10;8.68;;;;;;;13.74;73.69;101836.25;4996401;28;20049;-64
2022/05/28 06:51:03;;;;;;;24.25;8.75;;;;;;;13.56;74.62;101836.00;5006209;28;20406;-70
2022/05/28 06:53:40;;;;;;;25.42;8.15;;;;;;;13.83;73.51;101828.84;4996303;28;20512;-70
2022/05/28 06:56:08;;;;;;;23.60;8.35;;;;;;;14.06;72.83;101827.81;4994885;28;20069;-65
2022/05/28 06:58:38;;;;;;;20.98;7.50;;;;;;;14.14;71.04;101824.31;4996164;28;20518;-63
2022/05/28 07:01:07;;;;;;;23.05;8.75;;;;;;;14.18;70.97;101822.56;4996272;28;20057;-63
2022/05/28 07:03:34;;;;;;;24.30;8.45;;;;;;;14.41;70.37;101819.56;4978919;28;20059;-71
2022/05/28 07:06:02;;;;;;;21.75;7.60;;;;;;;14.50;69.65;101814.09;4995691;28;20061;-63
2022/05/28 07:08:29;;;;;;;29.65;9.32;;;;;;;14.42;69.03;101818.44;4994087;28;20050;-63
2022/05/28 07:10:59;;;;;;;29.10;8.82;;;;;;;14.42;69.32;101820.38;4996004;28;20046;-70
2022/05/28 07:13:29;;;;;;;26.63;9.10;;;;;;;14.63;69.13;101813.22;4995737;28;20046;-72
2022/05/28 07:15:56;;;;;;;36.80;9.50;;;;;;;14.65;69.27;101811.78;5010816;28;20053;-71
2022/05/28 07:18:24;;;;;;;27.05;8.40;;;;;;;14.86;68.96;101814.03;4994344;28;20119;-71
2022/05/28 07:20:52;;;;;;;20.98;7.70;;;;;;;14.97;68.44;101816.25;4992700;28;20525;-72
2022/05/28 07:23:22;;;;;;;27.67;8.60;;;;;;;14.86;67.82;101806.56;4995658;28;20058;-65
2022/05/28 07:25:53;;;;;;;28.30;8.77;;;;;;;14.75;68.31;101807.13;4995556;28;20061;-71
2022/05/28 07:28:27;;;;;;;29.48;8.05;;;;;;;14.80;68.16;101804.22;4993499;28;20069;-72
2022/05/28 07:30:57;;;;;;;25.50;7.75;;;;;;;15.23;67.36;101808.91;4994417;28;20057;-72
2022/05/28 07:33:26;;;;;;;25.50;9.07;;;;;;;15.65;65.66;101808.34;4994777;28;20504;-64
2022/05/28 07:35:55;;;;;;;27.90;7.93;;;;;;;15.83;64.09;101800.84;4994340;28;20061;-64
2022/05/28 07:38:24;;;;;;;21.05;7.65;;;;;;;15.82;63.57;101801.19;4994107;28;20054;-71
2022/05/28 07:40:52;;;;;;;27.10;7.45;;;;;;;15.99;62.91;101790.94;4959995;28;20410;-71
2022/05/28 07:43:21;;;;;;;25.65;7.60;;;;;;;16.44;62.63;101797.88;4995888;28;20051;-71
2022/05/28 07:45:49;;;;;;;26.10;7.93;;;;;;;16.54;61.63;101789.25;4995143;28;20081;-63
2022/05/28 07:48:17;;;;;;;24.90;7.45;;;;;;;16.64;61.09;101788.09;4995989;28;20062;-70
2022/05/28 07:50:45;;;;;;;26.00;7.72;;;;;;;16.74;60.79;101793.31;5010338;28;20050;-72
2022/05/28 07:53:12;;;;;;;28.30;7.63;;;;;;;16.57;62.08;101784.97;5009179;28;20042;-71
2022/05/28 07:55:40;;;;;;;22.58;6.70;;;;;;;18.08;57.54;101782.38;4994243;28;20534;-71
2022/05/28 07:58:10;;;;;;;22.63;7.93;;;;;;;18.34;56.81;101780.22;5010520;28;20062;-72
2022/05/28 08:00:39;;;;;;;21.73;8.48;;;;;;;17.74;57.28;101784.22;5010462;28;20050;-72
2022/05/28 08:03:07;;;;;;;23.13;6.85;;;;;;;17.54;56.93;101782.16;4994164;28;20055;-72
2022/05/28 08:05:36;;;;;;;24.88;8.05;;;;;;;17.56;57.90;101779.88;4992168;28;20469;-71
2022/05/28 08:08:04;;;;;;;22.33;7.00;;;;;;;17.81;57.23;101780.91;4978203;28;20058;-72
2022/05/28 08:10:31;;;;;;;20.77;7.22;;;;;;;17.90;56.04;101776.88;4996819;28;20046;-73
2022/05/28 08:13:19;;;;;;;27.58;7.28;;;;;;;17.64;56.30;101781.78;5014513;28;20050;-72
2022/05/28 08:15:48;;;;;;;23.33;6.93;;;;;;;17.26;57.72;101783.72;4981692;28;20054;-71
2022/05/28 08:18:20;;;;;;;23.85;7.30;;;;;;;17.30;57.61;101784.69;5013424;28;20054;-72
2022/05/28 08:23:33;;;;;;;21.77;7.65;;;;;;;17.13;58.42;101786.69;4979992;28;20077;-72
2022/05/28 08:26:00;;;;;;;28.45;7.45;;;;;;;17.29;58.22;101780.28;4997805;28;20053;-73
2022/05/28 08:28:28;;;;;;;28.25;8.00;;;;;;;17.35;57.54;101776.16;4999002;28;20066;-72
2022/05/28 08:30:55;;;;;;;22.60;6.93;;;;;;;17.55;56.89;101780.22;4998703;28;20536;-72
2022/05/28 08:33:22;;;;;;;23.02;6.75;;;;;;;17.71;56.85;101779.28;4998686;28;20042;-72
2022/05/28 08:35:50;;;;;;;22.25;7.68;;;;;;;17.25;57.56;101784.03;4997996;28;20062;-72
2022/05/28 08:38:19;;;;;;;23.05;7.05;;;;;;;16.85;59.10;101781.53;4996857;28;20047;-72
2022/05/28 08:40:51;;;;;;;27.35;7.13;;;;;;;16.94;58.35;101783.47;4996562;28;20062;-71
2022/05/28 08:43:19;;;;;;;24.70;7.53;;;;;;;17.25;58.03;101782.09;4997463;28;20429;-72
2022/05/28 08:45:49;;;;;;;28.65;8.30;;;;;;;16.53;59.10;101782.03;4997301;28;20054;-72
2022/05/28 08:48:20;;;;;;;23.20;7.55;;;;;;;16.67;58.99;101779.06;4989571;28;20061;-71
2022/05/28 08:50:53;;;;;;;24.65;7.20;;;;;;;16.87;58.52;101770.06;4961941;28;20058;-71
2022/05/28 08:53:28;;;;;;;18.35;6.60;;;;;;;16.94;58.40;101769.56;4961511;28;20051;-71
2022/05/28 08:55:58;;;;;;;22.75;7.50;;;;;;;16.77;58.79;101773.19;4961513;28;20063;-72
2022/05/28 08:58:27;;;;;;;16.20;6.38;;;;;;;17.28;57.54;101761.91;4984467;28;20058;-73
2022/05/28 09:01:10;;;;;;;22.08;7.03;;;;;;;16.85;57.57;101780.72;5013351;28;20050;-71
2022/05/28 09:03:42;;;;;;;21.95;7.43;;;;;;;16.19;60.74;101770.88;4981287;28;20054;-72
2022/05/28 09:06:16;;;;;;;23.20;7.72;;;;;;;16.29;59.64;101762.22;4998328;28;20058;-71
2022/05/28 09:08:50;;;;;;;25.55;7.55;;;;;;;16.00;60.00;101764.81;5013068;28;20176;-72
2022/05/28 09:11:38;;;;;;;21.13;6.25;;;;;;;16.08;60.44;101763.16;4997331;28;20058;-71
2022/05/28 09:14:35;;;;;;;24.42;6.35;;;;;;;16.33;59.15;101759.59;4991104;28;20062;-73
2022/05/28 09:17:07;;;;;;;22.27;5.85;;;;;;;16.60;57.89;101759.28;4998047;28;20047;-72
2022/05/28 09:19:45;;;;;;;22.63;5.93;;;;;;;16.65;58.08;101747.97;4969415;28;20059;-72
2022/05/28 09:22:13;;;;;;;23.35;5.90;;;;;;;16.95;56.64;101755.31;4982737;28;20046;-71
2022/05/28 09:24:41;;;;;;;21.15;7.20;;;;;;;16.64;57.82;101744.41;4997858;28;20050;-72
2022/05/28 09:27:18;;;;;;;21.58;5.82;;;;;;;17.02;57.29;101743.66;4979972;28;20065;-72
2022/05/28 09:30:07;;;;;;;22.30;6.78;;;;;;;17.31;55.95;101747.31;4998048;28;20065;-73
2022/05/28 09:33:03;;;;;;;22.10;5.90;;;;;;;16.77;57.05;101748.16;4998147;28;20050;-71
2022/05/28 09:35:53;;;;;;;25.15;6.00;;;;;;;17.02;56.34;101743.66;4957729;29;20051;-71
2022/05/28 09:38:58;;;;;;;24.67;7.03;;;;;;;16.85;56.46;101738.97;4958774;29;20090;-71
2022/05/28 09:41:43;;;;;;;25.75;6.35;;;;;;;16.73;55.45;101736.88;4959096;28;20518;-71
2022/05/28 09:44:23;;;;;;;24.55;6.18;;;;;;;16.71;55.55;101738.34;4994583;28;20050;-72
2022/05/28 09:46:50;;;;;;;19.55;5.80;;;;;;;16.96;54.90;101734.69;4997059;28;20065;-71
2022/05/28 09:49:21;;;;;;;23.35;6.05;;;;;;;17.53;53.79;101727.63;4997457;28;20481;-72
2022/05/28 09:51:54;;;;;;;22.85;5.88;;;;;;;18.22;52.24;101719.59;4994558;28;20480;-71
2022/05/28 09:54:30;;;;;;;17.50;5.40;;;;;;;18.27;51.47;101711.03;4997369;28;20049;-72
2022/05/28 09:57:09;;;;;;;19.08;4.93;;;;;;;17.78;50.64;101701.56;4997120;28;20062;-72
2022/05/28 09:59:43;;;;;;;26.13;5.43;;;;;;;17.67;50.49;101705.91;5011645;28;20061;-71
2022/05/28 10:02:24;;;;;;;18.58;5.80;;;;;;;17.40;51.01;101694.41;4997128;28;20745;-72
2022/05/28 10:05:11;;;;;;;26.08;5.57;;;;;;;17.57;51.04;101699.91;4993856;28;20050;-73
2022/05/28 10:07:42;;;;;;;24.92;5.13;;;;;;;17.63;50.69;101693.78;5011476;28;20127;-71
2022/05/28 10:10:12;;;;;;;23.27;5.95;;;;;;;17.47;51.08;101698.31;4995564;28;20080;-72
2022/05/28 10:12:40;;;;;;;22.40;5.63;;;;;;;17.40;51.39;101694.41;4997068;28;20050;-72
2022/05/28 10:15:17;;;;;;;17.30;5.18;;;;;;;17.69;50.94;101683.25;5011789;28;20050;-64
2022/05/28 10:17:54;;;;;;;19.80;5.10;;;;;;;18.11;49.89;101693.28;4992749;28;20505;-65
2022/05/28 10:20:22;;;;;;;18.45;5.43;;;;;;;17.63;49.19;101692.97;4979349;28;20057;-73
2022/05/28 10:22:51;;;;;;;24.38;5.03;;;;;;;17.44;49.18;101696.16;4960326;28;20054;-63
2022/05/28 10:25:48;;;;;;;20.73;4.13;;;;;;;17.52;48.76;101691.75;4971486;28;20505;-65
2022/05/28 10:28:30;;;;;;;14.93;3.85;;;;;;;17.62;47.50;101688.56;4996641;28;20058;-65
2022/05/28 10:30:57;;;;;;;22.25;6.60;;;;;;;17.99;47.08;101688.44;4995375;28;20058;-65
2022/05/28 10:33:29;;;;;;;15.07;4.03;;;;;;;18.02;47.75;101681.38;5011300;28;20417;-64
2022/05/28 10:36:13;;;;;;;19.38;4.78;;;;;;;18.02;47.82;101683.34;4994307;28;20054;-64
2022/05/28 10:38:42;;;;;;;15.32;3.58;;;;;;;18.15;47.64;101680.28;4996203;28;20066;-65
2022/05/28 10:41:21;;;;;;;17.23;4.45;;;;;;;18.42;46.67;101670.56;5011508;28;20054;-64
2022/05/28 10:43:49;;;;;;;19.35;4.63;;;;;;;18.48;46.43;101670.00;4996445;28;20050;-65
2022/05/28 10:46:25;;;;;;;19.75;4.38;;;;;;;18.79;45.65;101661.94;4995007;28;20085;-65
2022/05/28 10:49:26;;;;;;;12.77;3.80;;;;;;;17.84;46.00;101668.72;4996428;28;20057;-65
2022/05/28 10:52:03;;;;;;;16.73;4.78;;;;;;;17.82;46.46;101663.50;4994972;28;20401;-66
2022/05/28 10:55:03;;;;;;;13.65;4.00;;;;;;;17.58;46.68;101660.56;5011366;28;20049;-65
2022/05/28 10:57:38;;;;;;;17.63;3.75;;;;;;;17.76;45.05;101661.25;4994565;28;20065;-65
2022/05/28 11:00:11;;;;;;;15.98;3.75;;;;;;;17.81;44.50;101667.44;4957629;29;20055;-65
2022/05/28 11:03:08;;;;;;;14.98;4.15;;;;;;;17.56;46.86;101660.06;4957350;29;20055;-66
2022/05/28 11:05:53;;;;;;;14.85;3.78;;;;;;;17.59;46.14;101662.16;4956178;29;20066;-65
2022/05/28 11:08:55;;;;;;;15.25;3.90;;;;;;;17.84;46.26;101663.97;4971790;28;20059;-65
2022/05/28 11:11:37;;;;;;;13.70;3.70;;;;;;;17.86;46.53;101646.91;4984019;28;20058;-65
2022/05/28 11:14:25;;;;;;;14.50;3.35;;;;;;;17.71;46.28;101647.53;4996538;28;20509;-64
2022/05/28 11:17:26;;;;;;;13.27;3.63;;;;;;;17.75;45.68;101640.91;4958687;28;20065;-65
2022/05/28 11:20:29;;;;;;;13.93;3.17;;;;;;;18.35;43.98;101640.41;4971475;28;20059;-65
2022/05/28 11:23:38;;;;;;;10.45;3.13;;;;;;;18.42;42.31;101637.91;4965861;28;20062;-65
2022/05/28 11:26:20;;;;;;;12.75;3.15;;;;;;;18.28;43.27;101642.94;4978350;28;20559;-65
2022/05/28 11:29:06;;;;;;;10.90;3.13;;;;;;;18.04;43.65;101637.25;4995402;28;20073;-64
2022/05/28 11:31:43;;;;;;;9.63;2.63;;;;;;;18.22;43.36;101626.78;4994066;28;20061;-64
2022/05/28 11:34:14;;;;;;;14.10;3.28;;;;;;;18.34;42.83;101630.41;4994088;28;20054;-65
2022/05/28 11:36:52;;;;;;;10.23;3.30;;;;;;;18.43;43.48;101619.22;5010158;28;20390;-65
2022/05/28 11:39:43;;;;;;;12.60;3.60;;;;;;;18.02;44.65;101619.22;5009253;28;20438;-65
2022/05/28 11:42:22;;;;;;;14.63;3.58;;;;;;;18.40;44.27;101622.63;4993684;28;20058;-64